createdAt,value
2022-12-08T00:01:46.138Z,97336.06
2022-12-08T00:04:14.389Z,97342.09
2022-12-08T00:07:01.628Z,97322.25
2022-12-08T00:09:38.591Z,97342.06
2022-12-08T00:12:09.094Z,97336.03
2022-12-08T00:14:38.664Z,97318.00
2022-12-08T00:17:08.396Z,97248.25
2022-12-08T00:19:36.922Z,97235.38
2022-12-08T00:22:05.116Z,97333.50
2022-12-08T00:24:36.574Z,97331.75
2022-12-08T00:27:04.723Z,97324.88
2022-12-08T00:29:32.818Z,97333.47
2022-12-08T00:32:00.991Z,97320.53
2022-12-08T00:34:29.224Z,97311.06
2022-12-08T00:36:57.406Z,97328.28
2022-12-08T00:39:25.535Z,97317.97
2022-12-08T00:42:13.316Z,97276.59
2022-12-08T00:44:41.558Z,97258.56
2022-12-08T00:47:09.678Z,97303.31
2022-12-08T00:49:37.759Z,97318.81
2022-12-08T00:52:06.080Z,97319.66
2022-12-08T00:54:34.251Z,97309.34
2022-12-08T00:57:03.764Z,97323.09
2022-12-08T00:59:31.863Z,97324.88
2022-12-08T01:02:00.284Z,97303.31
2022-12-08T01:04:28.437Z,97320.53
2022-12-08T01:06:56.621Z,97327.44
2022-12-08T01:09:24.762Z,97305.91
2022-12-08T01:11:52.946Z,97317.94
2022-12-08T01:14:22.556Z,97326.56
2022-12-08T01:16:50.897Z,97325.72
2022-12-08T01:19:19.826Z,97330.03
2022-12-08T01:21:48.533Z,97307.66
2022-12-08T01:24:19.106Z,97304.22
2022-12-08T01:26:48.029Z,97315.41
2022-12-08T01:29:16.265Z,97321.41
2022-12-08T01:31:45.952Z,97322.25
2022-12-08T01:34:14.366Z,97300.72
2022-12-08T01:36:44.566Z,97191.44
2022-12-08T01:39:16.772Z,97308.44
2022-12-08T01:41:45.925Z,97263.66
2022-12-08T01:44:52.021Z,97296.34
2022-12-08T01:47:22.049Z,97280.00
2022-12-08T01:49:50.219Z,97296.34
2022-12-08T01:52:23.780Z,97297.19
2022-12-08T01:54:57.535Z,97286.88
2022-12-08T01:57:29.144Z,97294.63
2022-12-08T02:00:05.322Z,97279.94
2022-12-08T02:02:41.540Z,97274.75
2022-12-08T02:05:10.805Z,97250.69
2022-12-08T02:07:39.460Z,97082.06
2022-12-08T02:10:08.742Z,97208.44
2022-12-08T02:12:36.916Z,97272.91
2022-12-08T02:15:05.880Z,97262.63
2022-12-08T02:17:49.997Z,97247.16
2022-12-08T02:20:31.746Z,96938.63
2022-12-08T02:23:09.218Z,97258.34
2022-12-08T02:25:48.116Z,97257.44
2022-12-08T02:28:41.823Z,97262.66
2022-12-08T02:31:22.731Z,97253.91
2022-12-08T02:34:12.829Z,97257.41
2022-12-08T02:36:50.021Z,97198.97
2022-12-08T02:39:30.279Z,97232.50
2022-12-08T02:42:09.655Z,97259.22
2022-12-08T02:44:42.901Z,97249.69
2022-12-08T02:47:15.321Z,97252.28
2022-12-08T02:49:44.968Z,97248.00
2022-12-08T02:52:41.073Z,97253.09
2022-12-08T02:55:16.079Z,97162.88
2022-12-08T02:57:57.902Z,97251.44
2022-12-08T03:00:28.996Z,97254.03
2022-12-08T03:03:11.744Z,97244.53
2022-12-08T03:05:57.641Z,97225.66
2022-12-08T03:08:33.895Z,97244.50
2022-12-08T03:11:06.298Z,97248.81
2022-12-08T03:13:40.620Z,97237.59
2022-12-08T03:16:11.177Z,97235.03
2022-12-08T03:18:50.817Z,97218.72
2022-12-08T03:21:22.321Z,97225.63
2022-12-08T03:23:54.641Z,97166.34
2022-12-08T03:26:30.357Z,97220.53
2022-12-08T03:28:59.441Z,97217.03
2022-12-08T03:31:34.506Z,97217.00
2022-12-08T03:34:04.261Z,97219.59
2022-12-08T03:36:33.921Z,97098.34
2022-12-08T03:39:02.064Z,97214.34
2022-12-08T03:41:30.369Z,97207.50
2022-12-08T03:44:00.034Z,97204.91
2022-12-08T03:48:57.420Z,97107.72
2022-12-08T03:51:27.278Z,97177.34
2022-12-08T03:53:56.890Z,97130.97
2022-12-08T03:56:27.470Z,97198.00
2022-12-08T03:58:56.069Z,97187.66
2022-12-08T04:01:24.541Z,97192.00
2022-12-08T04:03:53.296Z,97086.28
2022-12-08T04:06:23.054Z,97184.31
2022-12-08T04:08:52.143Z,97175.78
2022-12-08T04:11:22.083Z,97186.97
2022-12-08T04:13:50.305Z,97199.06
2022-12-08T04:16:21.007Z,97126.91
2022-12-08T04:18:49.183Z,97187.00
2022-12-08T04:21:17.693Z,97187.00
2022-12-08T04:23:46.585Z,97185.31
2022-12-08T04:26:15.623Z,97143.13
2022-12-08T04:28:46.018Z,97182.66
2022-12-08T04:31:14.169Z,97176.59
2022-12-08T04:33:42.569Z,97180.03
2022-12-08T04:36:11.305Z,97009.84
2022-12-08T04:38:40.349Z,97151.59
2022-12-08T04:41:08.626Z,97168.81
2022-12-08T04:43:37.274Z,97157.63
2022-12-08T04:46:09.670Z,97163.63
2022-12-08T04:48:39.610Z,96949.72
2022-12-08T04:51:08.474Z,97166.22
2022-12-08T04:53:36.529Z,97168.78
2022-12-08T04:56:04.828Z,97143.78
2022-12-08T04:58:32.888Z,97166.16
2022-12-08T05:01:01.008Z,97149.81
2022-12-08T05:03:30.558Z,97142.91
2022-12-08T05:06:00.754Z,97140.31
2022-12-08T05:08:29.523Z,97154.84
2022-12-08T05:11:03.538Z,97148.81
2022-12-08T05:13:31.864Z,97137.69
2022-12-08T05:16:05.190Z,97141.16
2022-12-08T05:18:35.096Z,97140.28
2022-12-08T05:21:03.673Z,97135.97
2022-12-08T05:23:32.304Z,97102.47
2022-12-08T05:26:00.575Z,97138.50
2022-12-08T05:28:44.367Z,97147.09
2022-12-08T05:31:13.590Z,97144.56
2022-12-08T05:33:43.456Z,97108.47
2022-12-08T05:36:14.243Z,96922.13
2022-12-08T05:38:42.657Z,97145.47
2022-12-08T05:41:11.859Z,97156.75
2022-12-08T05:43:40.173Z,97159.34
2022-12-08T05:46:09.529Z,97160.16
2022-12-08T05:48:38.053Z,97152.41
2022-12-08T05:51:13.978Z,97147.25
2022-12-08T05:53:42.093Z,97122.34
2022-12-08T05:56:12.240Z,97116.31
2022-12-08T05:58:40.706Z,97134.41
2022-12-08T06:01:08.882Z,97107.78
2022-12-08T06:03:37.093Z,97138.63
2022-12-08T06:06:05.711Z,97132.59
2022-12-08T06:08:35.261Z,97129.16
2022-12-08T06:11:03.483Z,97125.75
2022-12-08T06:13:31.610Z,97135.09
2022-12-08T06:16:05.627Z,97134.22
2022-12-08T06:18:34.353Z,97117.94
2022-12-08T06:21:06.724Z,97123.94
2022-12-08T06:23:36.563Z,97119.63
2022-12-08T06:26:06.293Z,97124.69
2022-12-08T06:28:34.873Z,97083.47
2022-12-08T06:31:09.294Z,97018.16
2022-12-08T06:33:38.116Z,97101.53
2022-12-08T06:36:06.974Z,96941.78
2022-12-08T06:38:40.532Z,97120.50
2022-12-08T06:41:12.069Z,97115.31
2022-12-08T06:43:41.033Z,97101.56
2022-12-08T06:46:11.259Z,97085.22
2022-12-08T06:48:39.549Z,97120.47
2022-12-08T06:51:09.605Z,97118.75
2022-12-08T06:53:39.179Z,97130.78
2022-12-08T06:56:08.495Z,97141.13
2022-12-08T06:58:36.786Z,97117.81
2022-12-08T07:01:09.561Z,97116.13
2022-12-08T07:03:39.016Z,97117.00
2022-12-08T07:06:07.874Z,97135.03
2022-12-08T07:08:36.439Z,97125.53
2022-12-08T07:11:10.330Z,97122.09
2022-12-08T07:13:38.557Z,97108.25
2022-12-08T07:16:08.299Z,96828.44
2022-12-08T07:18:36.512Z,97103.03
2022-12-08T07:21:06.378Z,97121.06
2022-12-08T07:23:34.525Z,97096.16
2022-12-08T07:26:03.560Z,97123.66
2022-12-08T07:28:33.806Z,97125.44
2022-12-08T07:31:02.479Z,97091.09
2022-12-08T07:33:31.104Z,97015.56
2022-12-08T07:36:00.937Z,97124.72
2022-12-08T07:38:29.860Z,97108.38
2022-12-08T07:40:58.357Z,97128.13
2022-12-08T07:43:26.463Z,97126.41
2022-12-08T07:45:56.132Z,97087.78
2022-12-08T07:48:24.401Z,97086.97
2022-12-08T07:50:52.575Z,97120.38
2022-12-08T07:53:20.674Z,96799.31
2022-12-08T07:55:48.744Z,97129.00
2022-12-08T07:58:16.844Z,96998.41
2022-12-08T08:00:44.998Z,96792.47
2022-12-08T08:03:14.685Z,97123.84
2022-12-08T08:05:44.173Z,97122.09
2022-12-08T08:08:12.530Z,97093.75
2022-12-08T08:10:40.681Z,97111.69
2022-12-08T08:13:09.838Z,97115.09
2022-12-08T08:15:38.232Z,97110.78
2022-12-08T08:18:06.476Z,97044.63
2022-12-08T08:20:36.002Z,97105.53
2022-12-08T08:23:04.179Z,97111.59
2022-12-08T08:25:32.396Z,97108.19
2022-12-08T08:28:00.508Z,97120.25
2022-12-08T08:30:28.698Z,97117.66
2022-12-08T08:32:56.798Z,97126.25
2022-12-08T08:35:25.002Z,97120.22
2022-12-08T08:37:54.507Z,97126.19
2022-12-08T08:40:22.592Z,97127.91
2022-12-08T08:42:50.712Z,97105.50
2022-12-08T08:45:18.847Z,97117.47
2022-12-08T08:47:46.975Z,97117.50
2022-12-08T08:50:15.147Z,97088.22
2022-12-08T08:52:43.258Z,97067.53
2022-12-08T08:55:12.812Z,97100.22
2022-12-08T08:57:40.992Z,97096.75
2022-12-08T09:00:10.859Z,97097.66
2022-12-08T09:02:39.699Z,97078.72
2022-12-08T09:05:08.803Z,97072.84
2022-12-08T09:07:37.069Z,97068.50
2022-12-08T09:10:06.135Z,97090.81
2022-12-08T09:12:35.853Z,97107.97
2022-12-08T09:15:04.052Z,97105.31
2022-12-08T09:17:32.140Z,97081.28
2022-12-08T09:20:01.470Z,97096.78
2022-12-08T09:22:30.023Z,97094.94
2022-12-08T09:24:58.199Z,97064.84
2022-12-08T09:27:26.437Z,97085.44
2022-12-08T09:29:55.942Z,97077.63
2022-12-08T09:32:24.227Z,97082.75
2022-12-08T09:34:54.542Z,97081.88
2022-12-08T09:37:22.670Z,97062.16
2022-12-08T09:39:50.772Z,97078.44
2022-12-08T09:42:30.955Z,97080.16
2022-12-08T09:45:07.581Z,97078.50
2022-12-08T09:47:41.883Z,97081.03
2022-12-08T09:50:17.284Z,97065.59
2022-12-08T09:52:51.198Z,97082.81
2022-12-08T09:55:25.873Z,97077.66
2022-12-08T09:58:01.657Z,97074.16
2022-12-08T10:00:31.348Z,97043.31
2022-12-08T10:03:00.258Z,97069.09
2022-12-08T10:05:31.957Z,97064.81
2022-12-08T10:08:08.687Z,97063.19
2022-12-08T10:10:43.157Z,97067.53
2022-12-08T10:13:21.782Z,97059.69
2022-12-08T10:16:02.492Z,97013.31
2022-12-08T10:18:33.186Z,97050.16
2022-12-08T10:21:14.811Z,96894.00
2022-12-08T10:23:45.818Z,96982.16
2022-12-08T10:26:15.736Z,97025.84
2022-12-08T10:28:45.393Z,97036.00
2022-12-08T10:31:20.953Z,97035.16
2022-12-08T10:34:00.034Z,97033.34
2022-12-08T10:36:48.330Z,97018.66
2022-12-08T10:39:32.615Z,97020.38
2022-12-08T10:42:19.986Z,97017.78
2022-12-08T10:44:57.179Z,96992.84
2022-12-08T10:47:28.781Z,97003.81
2022-12-08T10:50:19.023Z,96981.44
2022-12-08T10:52:48.292Z,96986.53
2022-12-08T10:55:18.141Z,96947.94
2022-12-08T10:57:49.401Z,96992.88
2022-12-08T11:00:20.095Z,96943.47
2022-12-08T11:02:59.041Z,96916.00
2022-12-08T11:05:29.959Z,96961.44
2022-12-08T11:07:58.372Z,96962.34
2022-12-08T11:10:35.606Z,96950.22
2022-12-08T11:13:06.117Z,96906.50
2022-12-08T11:15:39.163Z,96950.09
2022-12-08T11:18:22.919Z,96932.91
2022-12-08T11:20:59.848Z,96956.22
2022-12-08T11:23:29.926Z,96887.03
2022-12-08T11:26:04.478Z,96965.88
2022-12-08T11:28:32.592Z,96954.63
2022-12-08T11:31:08.268Z,96942.63
2022-12-08T11:33:37.910Z,96923.78
2022-12-08T11:36:10.652Z,96918.72
2022-12-08T11:38:43.676Z,96934.06
2022-12-08T11:41:16.673Z,96935.00
2022-12-08T11:43:52.727Z,96925.53
2022-12-08T11:46:25.134Z,96936.66
2022-12-08T11:49:05.949Z,96932.28
2022-12-08T11:51:38.649Z,96931.34
2022-12-08T11:54:21.561Z,96907.38
2022-12-08T11:56:52.808Z,96928.72
2022-12-08T11:59:27.720Z,96909.03
2022-12-08T12:01:56.168Z,96922.59
2022-12-08T12:04:31.312Z,96934.53
2022-12-08T12:07:29.077Z,96918.19
2022-12-08T12:10:34.017Z,96916.44
2022-12-08T12:13:13.792Z,96915.47
2022-12-08T12:16:09.381Z,96845.09
2022-12-08T12:18:46.333Z,96929.91
2022-12-08T12:21:20.503Z,96904.78
2022-12-08T12:23:54.531Z,96897.78
2022-12-08T12:26:24.937Z,96902.91
2022-12-08T12:28:57.512Z,96878.13
2022-12-08T12:31:29.126Z,96878.19
2022-12-08T12:34:07.511Z,96838.75
2022-12-08T12:36:49.857Z,96883.38
2022-12-08T12:39:22.146Z,96862.66
2022-12-08T12:41:53.263Z,96879.97
2022-12-08T12:44:43.261Z,96879.03
2022-12-08T12:47:36.282Z,96862.72
2022-12-08T12:50:10.100Z,96865.19
2022-12-08T12:52:50.050Z,96870.38
2022-12-08T12:55:28.021Z,96871.16
2022-12-08T12:57:57.901Z,96831.59
2022-12-08T13:00:27.962Z,96866.69
2022-12-08T13:02:58.941Z,96840.97
2022-12-08T13:05:29.991Z,96854.66
2022-12-08T13:08:02.371Z,96858.91
2022-12-08T13:10:32.582Z,96860.63
2022-12-08T13:13:07.588Z,96866.72
2022-12-08T13:15:39.047Z,96838.50
2022-12-08T13:18:08.601Z,96860.03
2022-12-08T13:20:43.530Z,96850.75
2022-12-08T13:23:29.424Z,96886.22
2022-12-08T13:26:13.015Z,96849.81
2022-12-08T13:29:14.314Z,96842.66
2022-12-08T13:31:50.199Z,96834.13
2022-12-08T13:34:24.294Z,96849.56
2022-12-08T13:37:05.395Z,96851.34
2022-12-08T13:39:45.062Z,96853.09
2022-12-08T13:42:22.722Z,96826.56
2022-12-08T13:48:20.442Z,96833.56
2022-12-08T13:54:35.473Z,96835.28
2022-12-08T13:59:28.229Z,96854.25
2022-12-08T14:01:58.719Z,96856.19
2022-12-08T14:04:54.631Z,96857.16
2022-12-08T14:07:15.961Z,96864.19
2022-12-08T14:09:44.566Z,96866.72
2022-12-08T14:12:20.854Z,96804.19
2022-12-08T14:15:03.032Z,96862.38
2022-12-08T14:17:32.191Z,96869.28
2022-12-08T14:20:02.432Z,96714.19
2022-12-08T14:22:35.291Z,96864.78
2022-12-08T14:25:04.353Z,96852.03
2022-12-08T14:27:36.919Z,96866.63
2022-12-08T14:30:08.360Z,96876.13
2022-12-08T14:32:40.216Z,96878.72
2022-12-08T14:35:22.020Z,96845.16
2022-12-08T14:37:52.649Z,96876.88
2022-12-08T14:40:24.604Z,96873.44
2022-12-08T14:43:05.836Z,96874.22
2022-12-08T14:45:35.092Z,96886.41
2022-12-08T14:48:21.971Z,96885.53
2022-12-08T14:51:03.038Z,96888.13
2022-12-08T14:53:38.559Z,96875.44
2022-12-08T14:56:21.655Z,96881.31
2022-12-08T14:59:02.667Z,96880.34
2022-12-08T15:01:31.330Z,96732.25
2022-12-08T15:04:04.125Z,96867.38
2022-12-08T15:06:32.363Z,96875.19
2022-12-08T15:09:00.969Z,96883.63
2022-12-08T15:11:33.905Z,96863.94
2022-12-08T15:14:03.864Z,96818.53
2022-12-08T15:16:45.001Z,96849.50
2022-12-08T15:19:20.175Z,96889.13
2022-12-08T15:21:48.603Z,96891.78
2022-12-08T15:24:17.564Z,96864.31
2022-12-08T15:26:47.755Z,96885.69
2022-12-08T15:29:23.039Z,96884.72
2022-12-08T15:31:52.649Z,96874.31
2022-12-08T15:34:21.207Z,96877.75
2022-12-08T15:36:51.694Z,96876.91
2022-12-08T15:39:31.424Z,96878.81
2022-12-08T15:42:00.144Z,96883.25
2022-12-08T15:44:32.730Z,96881.47
2022-12-08T15:47:01.622Z,96885.69
2022-12-08T15:49:29.864Z,96895.22
2022-12-08T15:52:10.590Z,96876.31
2022-12-08T15:54:39.640Z,96874.56
2022-12-08T15:57:19.500Z,96847.13
2022-12-08T15:59:54.795Z,96879.66
2022-12-08T16:02:25.289Z,96821.53
2022-12-08T16:05:40.322Z,96889.25
2022-12-08T16:07:41.979Z,96880.63
2022-12-08T16:10:17.355Z,96853.97
2022-12-08T16:16:00.291Z,96887.34
2022-12-08T16:18:31.292Z,96865.16
2022-12-08T16:23:47.789Z,96883.31
2022-12-08T16:26:44.221Z,96793.38
2022-12-08T16:29:06.183Z,96802.16
2022-12-08T16:31:35.916Z,96886.09
2022-12-08T16:34:04.106Z,96886.13
2022-12-08T16:36:32.253Z,96777.47
2022-12-08T16:39:00.531Z,96894.84
2022-12-08T16:41:46.134Z,96899.97
2022-12-08T16:44:14.376Z,96864.84
2022-12-08T16:46:44.045Z,96905.16
2022-12-08T16:49:12.326Z,96893.09
2022-12-08T16:51:42.882Z,96897.53
2022-12-08T16:54:11.091Z,96834.09
2022-12-08T16:56:39.263Z,96779.31
2022-12-08T16:59:07.435Z,96887.16
2022-12-08T17:01:35.956Z,96875.84
2022-12-08T17:06:53.936Z,96878.25
2022-12-08T17:09:22.154Z,96875.69
2022-12-08T17:11:50.337Z,96883.56
2022-12-08T17:14:18.752Z,96876.69
2022-12-08T17:16:47.096Z,96870.69
2022-12-08T17:19:17.411Z,96873.31
2022-12-08T17:21:45.756Z,96875.06
2022-12-08T17:24:17.264Z,96873.41
2022-12-08T17:26:51.737Z,96864.03
2022-12-08T17:29:19.978Z,96872.72
2022-12-08T17:31:48.303Z,96838.44
2022-12-08T17:34:18.416Z,96880.47
2022-12-08T17:36:46.561Z,96746.75
2022-12-08T17:39:18.778Z,96885.56
2022-12-08T17:41:47.686Z,96849.53
2022-12-08T17:44:18.517Z,96867.50
2022-12-08T17:46:52.477Z,96884.75
2022-12-08T17:49:24.938Z,96857.34
2022-12-08T17:51:54.951Z,96865.06
2022-12-08T17:54:23.389Z,96922.78
2022-12-08T17:56:52.252Z,96853.97
2022-12-08T17:59:20.718Z,96869.22
2022-12-08T18:01:49.118Z,96840.03
2022-12-08T18:04:17.428Z,96853.84
2022-12-08T18:06:47.154Z,96886.31
2022-12-08T18:09:15.990Z,96887.28
2022-12-08T18:11:46.187Z,96890.66
2022-12-08T18:14:15.643Z,96832.31
2022-12-08T18:16:46.170Z,96882.03
2022-12-08T18:19:15.089Z,96853.84
2022-12-08T18:21:44.050Z,96829.06
2022-12-08T18:24:19.079Z,96876.06
2022-12-08T18:26:47.771Z,96871.03
2022-12-08T18:29:15.915Z,96882.16
2022-12-08T18:31:44.231Z,96884.69
2022-12-08T18:34:12.614Z,96889.06
2022-12-08T18:36:40.858Z,96886.31
2022-12-08T18:39:10.918Z,96860.63
2022-12-08T18:41:40.752Z,96882.81
2022-12-08T18:44:08.909Z,96778.31
2022-12-08T18:46:37.162Z,96891.50
2022-12-08T18:49:05.364Z,96877.75
2022-12-08T18:51:33.599Z,96878.63
2022-12-08T18:54:01.752Z,96875.19
2022-12-08T18:56:31.582Z,96869.19
2022-12-08T18:59:04.116Z,96851.13
2022-12-08T19:01:33.420Z,96844.13
2022-12-08T19:06:49.904Z,96837.22
2022-12-08T19:09:20.965Z,96863.00
2022-12-08T19:11:49.225Z,96871.69
2022-12-08T19:14:24.035Z,96876.91
2022-12-08T19:16:55.563Z,96877.00
2022-12-08T19:19:23.726Z,96874.44
2022-12-08T19:21:51.917Z,96874.41
2022-12-08T19:24:20.299Z,96885.63
2022-12-08T19:26:48.464Z,96878.72
2022-12-08T19:29:18.199Z,96877.84
2022-12-08T19:31:46.568Z,96885.78
2022-12-08T19:34:15.482Z,96890.97
2022-12-08T19:36:44.186Z,96889.22
2022-12-08T19:39:34.728Z,96896.81
2022-12-08T19:42:20.803Z,96837.59
2022-12-08T19:44:56.333Z,96889.91
2022-12-08T19:47:26.276Z,96881.28
2022-12-08T19:50:15.960Z,96887.38
2022-12-08T19:52:45.024Z,96878.78
2022-12-08T19:55:13.791Z,96886.63
2022-12-08T19:57:41.918Z,96884.94
2022-12-08T20:00:13.739Z,96865.38
2022-12-08T20:02:41.981Z,96880.84
2022-12-08T20:05:11.761Z,96881.66
2022-12-08T20:07:40.145Z,96870.50
2022-12-08T20:10:13.146Z,96879.94
2022-12-08T20:12:41.256Z,96897.94
2022-12-08T20:15:12.236Z,96887.72
2022-12-08T20:17:40.397Z,96910.88
2022-12-08T20:20:10.962Z,96865.38
2022-12-08T20:22:39.417Z,96910.72
2022-12-08T20:25:12.708Z,96904.78
2022-12-08T20:27:41.332Z,96905.63
2022-12-08T20:30:16.776Z,96885.00
2022-12-08T20:32:45.580Z,96893.63
2022-12-08T20:35:14.119Z,96883.22
2022-12-08T20:37:42.323Z,96878.91
2022-12-08T20:40:11.138Z,96876.34
2022-12-08T20:42:39.307Z,96885.00
2022-12-08T20:45:09.679Z,96882.25
2022-12-08T20:47:39.704Z,96884.81
2022-12-08T20:50:09.678Z,96890.13
2022-12-08T20:52:39.001Z,96888.41
2022-12-08T20:55:08.986Z,96865.28
2022-12-08T20:57:37.378Z,96885.84
2022-12-08T21:00:06.717Z,96884.94
2022-12-08T21:02:35.457Z,96873.75
2022-12-08T21:05:05.804Z,96865.91
2022-12-08T21:07:35.136Z,96881.31
2022-12-08T21:10:04.211Z,96873.53
2022-12-08T21:12:33.471Z,96880.53
2022-12-08T21:15:01.612Z,96881.28
2022-12-08T21:17:29.945Z,96878.72
2022-12-08T21:19:58.213Z,96877.94
2022-12-08T21:22:27.759Z,96868.47
2022-12-08T21:24:55.833Z,96889.03
2022-12-08T21:27:24.325Z,96893.38
2022-12-08T21:29:52.578Z,96854.03
2022-12-08T21:32:23.424Z,96865.25
2022-12-08T21:34:55.454Z,96885.97
2022-12-08T21:37:24.554Z,96864.50
2022-12-08T21:39:54.152Z,96848.19
2022-12-08T21:42:39.671Z,96876.53
2022-12-08T21:45:08.727Z,96823.41
2022-12-08T21:47:37.202Z,96797.72
2022-12-08T21:50:06.495Z,96904.13
2022-12-08T21:52:38.843Z,96788.31
2022-12-08T21:55:11.049Z,96903.22
2022-12-08T21:57:39.579Z,96875.72
2022-12-08T22:00:09.921Z,96901.53
2022-12-08T22:02:38.840Z,96898.19
2022-12-08T22:05:08.187Z,96872.47
2022-12-08T22:07:39.479Z,96899.13
2022-12-08T22:10:30.578Z,96889.66
2022-12-08T22:12:58.890Z,96886.16
2022-12-08T22:15:29.804Z,96876.56
2022-12-08T22:17:58.252Z,96876.56
2022-12-08T22:20:26.733Z,96878.31
2022-12-08T22:22:54.944Z,96861.16
2022-12-08T22:25:24.522Z,96853.34
2022-12-08T22:27:52.794Z,96850.69
2022-12-08T22:30:21.535Z,96845.50
2022-12-08T22:32:49.830Z,96759.81
2022-12-08T22:35:18.118Z,96868.50
2022-12-08T22:37:49.759Z,96823.97
2022-12-08T22:40:18.274Z,96860.69
2022-12-08T22:42:48.040Z,96850.47
2022-12-08T22:45:16.210Z,96852.22
2022-12-08T22:47:44.385Z,96867.66
2022-12-08T22:50:13.045Z,96871.94
2022-12-08T22:52:41.408Z,96870.28
2022-12-08T22:55:10.226Z,96856.56
2022-12-08T22:57:38.361Z,96871.25
2022-12-08T23:00:12.943Z,96843.75
2022-12-08T23:02:41.944Z,96850.56
2022-12-08T23:05:11.172Z,96856.59
2022-12-08T23:07:40.619Z,96863.50
2022-12-08T23:10:11.811Z,96845.50
2022-12-08T23:12:40.292Z,96857.47
2022-12-08T23:15:11.080Z,96830.84
2022-12-08T23:17:39.327Z,96817.16
2022-12-08T23:20:10.022Z,96859.09
2022-12-08T23:22:38.868Z,96850.47
2022-12-08T23:25:07.916Z,96845.31
2022-12-08T23:27:36.334Z,96860.88
2022-12-08T23:30:05.981Z,96860.16
2022-12-08T23:32:36.041Z,96825.91
2022-12-08T23:35:04.391Z,96854.03
2022-12-08T23:37:32.605Z,96855.91
2022-12-08T23:40:00.916Z,96843.88
2022-12-08T23:42:30.516Z,96845.59
2022-12-08T23:44:58.857Z,96843.88
2022-12-08T23:47:27.366Z,96836.09
2022-12-08T23:49:57.248Z,96819.81
2022-12-08T23:52:25.395Z,96804.34
2022-12-08T23:54:54.641Z,96826.69
2022-12-08T23:57:22.822Z,96689.66
2022-12-08T23:59:50.961Z,96826.75
